sensor_id;sensor_type;location;lat;lon;timestamp;P1;durP1;ratioP1;P2;durP2;ratioP2
66127;SDS011;52925;52.436;-1.952;2024-01-10T05:12:44;2.83;;;0.90;;
66127;SDS011;52925;52.436;-1.952;2024-01-10T05:14:05;4.78;;;1.02;;
66127;SDS011;52925;52.436;-1.952;2024-01-10T05:15:25;3.72;;;0.80;;
66127;SDS011;52925;52.436;-1.952;2024-01-10T05:16:46;1.75;;;0.73;;
66127;SDS011;52925;52.436;-1.952;2024-01-10T05:18:06;2.85;;;0.98;;
66127;SDS011;52925;52.436;-1.952;2024-01-10T05:19:27;2.50;;;0.80;;
66127;SDS011;52925;52.436;-1.952;2024-01-10T05:20:48;1.30;;;0.77;;
66127;SDS011;52925;52.436;-1.952;2024-01-10T05:22:09;3.22;;;0.82;;
66127;SDS011;52925;52.436;-1.952;2024-01-10T05:23:28;1.52;;;0.95;;
66127;SDS011;52925;52.436;-1.952;2024-01-10T05:24:49;3.40;;;0.82;;
66127;SDS011;52925;52.436;-1.952;2024-01-10T05:26:09;1.85;;;0.90;;
66127;SDS011;52925;52.436;-1.952;2024-01-10T05:27:30;2.83;;;1.20;;
66127;SDS011;52925;52.436;-1.952;2024-01-10T05:28:51;3.17;;;0.88;;
66127;SDS011;52925;52.436;-1.952;2024-01-10T05:30:12;3.15;;;0.90;;
66127;SDS011;52925;52.436;-1.952;2024-01-10T05:31:32;3.05;;;0.80;;
66127;SDS011;52925;52.436;-1.952;2024-01-10T05:32:53;2.03;;;0.75;;
66127;SDS011;52925;52.436;-1.952;2024-01-10T05:34:14;1.67;;;0.90;;
66127;SDS011;52925;52.436;-1.952;2024-01-10T05:35:35;3.42;;;0.85;;
66127;SDS011;52925;52.436;-1.952;2024-01-10T05:36:55;1.58;;;0.80;;
66127;SDS011;52925;52.436;-1.952;2024-01-10T05:38:16;2.38;;;0.82;;
66127;SDS011;52925;52.436;-1.952;2024-01-10T05:39:36;2.67;;;0.90;;
66127;SDS011;52925;52.436;-1.952;2024-01-10T05:40:57;2.13;;;0.70;;
66127;SDS011;52925;52.436;-1.952;2024-01-10T05:42:17;4.40;;;1.00;;
66127;SDS011;52925;52.436;-1.952;2024-01-10T05:43:38;2.60;;;0.82;;
66127;SDS011;52925;52.436;-1.952;2024-01-10T05:45:00;1.95;;;0.80;;
66127;SDS011;52925;52.436;-1.952;2024-01-10T05:46:21;2.97;;;0.70;;
66127;SDS011;52925;52.436;-1.952;2024-01-10T05:47:41;3.28;;;0.70;;
66127;SDS011;52925;52.436;-1.952;2024-01-10T05:49:02;1.55;;;0.82;;
66127;SDS011;52925;52.436;-1.952;2024-01-10T05:50:23;3.75;;;1.00;;
66127;SDS011;52925;52.436;-1.952;2024-01-10T05:51:44;1.60;;;0.75;;
66127;SDS011;52925;52.436;-1.952;2024-01-10T05:53:04;2.35;;;0.80;;
66127;SDS011;52925;52.436;-1.952;2024-01-10T05:54:25;2.55;;;1.00;;
66127;SDS011;52925;52.436;-1.952;2024-01-10T05:55:46;2.83;;;0.95;;
66127;SDS011;52925;52.436;-1.952;2024-01-10T05:57:07;3.28;;;0.90;;
66127;SDS011;52925;52.436;-1.952;2024-01-10T05:58:27;2.03;;;0.68;;
66127;SDS011;52925;52.436;-1.952;2024-01-10T05:59:48;2.17;;;0.60;;
66127;SDS011;52925;52.436;-1.952;2024-01-10T06:01:09;1.67;;;0.73;;
66127;SDS011;52925;52.436;-1.952;2024-01-10T06:02:30;2.25;;;0.70;;
66127;SDS011;52925;52.436;-1.952;2024-01-10T06:03:50;2.53;;;0.75;;
66127;SDS011;52925;52.436;-1.952;2024-01-10T06:05:11;3.50;;;1.00;;
66127;SDS011;52925;52.436;-1.952;2024-01-10T06:06:31;2.83;;;0.75;;
66127;SDS011;52925;52.436;-1.952;2024-01-10T06:07:52;1.60;;;0.70;;
66127;SDS011;52925;52.436;-1.952;2024-01-10T06:09:12;0.93;;;0.60;;
66127;SDS011;52925;52.436;-1.952;2024-01-10T06:10:40;1.73;;;0.80;;
66127;SDS011;52925;52.436;-1.952;2024-01-10T06:12:00;2.22;;;0.68;;
66127;SDS011;52925;52.436;-1.952;2024-01-10T06:13:21;2.47;;;0.70;;
66127;SDS011;52925;52.436;-1.952;2024-01-10T06:14:41;3.03;;;0.90;;
66127;SDS011;52925;52.436;-1.952;2024-01-10T06:16:02;2.38;;;0.80;;
66127;SDS011;52925;52.436;-1.952;2024-01-10T06:17:25;2.90;;;1.10;;
66127;SDS011;52925;52.436;-1.952;2024-01-10T06:18:45;2.35;;;0.90;;
66127;SDS011;52925;52.436;-1.952;2024-01-10T06:20:06;2.95;;;0.60;;
66127;SDS011;52925;52.436;-1.952;2024-01-10T06:21:26;3.08;;;0.75;;
66127;SDS011;52925;52.436;-1.952;2024-01-10T06:22:47;2.90;;;0.90;;
66127;SDS011;52925;52.436;-1.952;2024-01-10T06:24:07;3.80;;;0.80;;
66127;SDS011;52925;52.436;-1.952;2024-01-10T06:25:28;1.90;;;0.80;;
66127;SDS011;52925;52.436;-1.952;2024-01-10T06:26:48;2.47;;;0.70;;
66127;SDS011;52925;52.436;-1.952;2024-01-10T06:28:09;2.78;;;0.70;;
66127;SDS011;52925;52.436;-1.952;2024-01-10T06:29:29;3.53;;;0.95;;
66127;SDS011;52925;52.436;-1.952;2024-01-10T06:30:50;2.35;;;0.80;;
66127;SDS011;52925;52.436;-1.952;2024-01-10T06:32:10;3.25;;;0.70;;
66127;SDS011;52925;52.436;-1.952;2024-01-10T06:33:32;1.30;;;0.63;;
66127;SDS011;52925;52.436;-1.952;2024-01-10T06:34:51;2.45;;;0.90;;
66127;SDS011;52925;52.436;-1.952;2024-01-10T06:36:12;1.55;;;0.60;;
66127;SDS011;52925;52.436;-1.952;2024-01-10T06:37:32;1.77;;;0.80;;
66127;SDS011;52925;52.436;-1.952;2024-01-10T06:38:53;2.28;;;0.70;;
66127;SDS011;52925;52.436;-1.952;2024-01-10T06:40:13;2.55;;;0.80;;
66127;SDS011;52925;52.436;-1.952;2024-01-10T06:41:34;1.75;;;0.60;;
66127;SDS011;52925;52.436;-1.952;2024-01-10T06:42:54;2.38;;;0.93;;
66127;SDS011;52925;52.436;-1.952;2024-01-10T06:44:14;2.53;;;0.70;;
66127;SDS011;52925;52.436;-1.952;2024-01-10T06:45:36;2.42;;;0.70;;
66127;SDS011;52925;52.436;-1.952;2024-01-10T06:46:57;1.42;;;0.65;;
66127;SDS011;52925;52.436;-1.952;2024-01-10T06:48:17;4.20;;;0.90;;
66127;SDS011;52925;52.436;-1.952;2024-01-10T06:49:39;3.67;;;0.98;;
66127;SDS011;52925;52.436;-1.952;2024-01-10T06:50:59;4.00;;;0.98;;
66127;SDS011;52925;52.436;-1.952;2024-01-10T06:52:20;2.45;;;0.90;;
66127;SDS011;52925;52.436;-1.952;2024-01-10T06:53:39;1.77;;;0.77;;
66127;SDS011;52925;52.436;-1.952;2024-01-10T06:55:00;1.75;;;0.80;;
66127;SDS011;52925;52.436;-1.952;2024-01-10T06:56:20;2.78;;;0.65;;
66127;SDS011;52925;52.436;-1.952;2024-01-10T06:57:40;2.05;;;0.65;;
66127;SDS011;52925;52.436;-1.952;2024-01-10T06:59:00;1.65;;;0.70;;
66127;SDS011;52925;52.436;-1.952;2024-01-10T07:00:22;3.05;;;0.60;;
66127;SDS011;52925;52.436;-1.952;2024-01-10T07:01:42;2.13;;;0.93;;
66127;SDS011;52925;52.436;-1.952;2024-01-10T07:03:03;2.08;;;0.70;;
66127;SDS011;52925;52.436;-1.952;2024-01-10T07:04:23;2.30;;;0.70;;
66127;SDS011;52925;52.436;-1.952;2024-01-10T07:05:45;2.60;;;0.80;;
66127;SDS011;52925;52.436;-1.952;2024-01-10T07:07:05;1.90;;;0.70;;
66127;SDS011;52925;52.436;-1.952;2024-01-10T07:08:27;4.05;;;0.75;;
66127;SDS011;52925;52.436;-1.952;2024-01-10T07:09:46;2.67;;;0.82;;
66127;SDS011;52925;52.436;-1.952;2024-01-10T07:11:07;3.22;;;0.77;;
66127;SDS011;52925;52.436;-1.952;2024-01-10T07:12:27;2.97;;;0.68;;
66127;SDS011;52925;52.436;-1.952;2024-01-10T07:13:48;2.47;;;0.80;;
66127;SDS011;52925;52.436;-1.952;2024-01-10T07:15:08;1.65;;;0.60;;
66127;SDS011;52925;52.436;-1.952;2024-01-10T07:16:30;1.30;;;0.70;;
66127;SDS011;52925;52.436;-1.952;2024-01-10T16:38:31;2.60;;;2.15;;
66127;SDS011;52925;52.436;-1.952;2024-01-10T16:39:53;2.45;;;2.25;;
66127;SDS011;52925;52.436;-1.952;2024-01-10T16:41:13;2.80;;;2.35;;
66127;SDS011;52925;52.436;-1.952;2024-01-10T16:42:35;3.53;;;2.60;;
66127;SDS011;52925;52.436;-1.952;2024-01-10T16:43:55;3.63;;;2.78;;
66127;SDS011;52925;52.436;-1.952;2024-01-10T16:45:16;3.25;;;2.70;;
66127;SDS011;52925;52.436;-1.952;2024-01-10T16:46:36;3.17;;;2.60;;
66127;SDS011;52925;52.436;-1.952;2024-01-10T16:47:58;4.22;;;2.55;;
66127;SDS011;52925;52.436;-1.952;2024-01-10T16:49:18;3.10;;;2.53;;
66127;SDS011;52925;52.436;-1.952;2024-01-10T16:50:40;3.17;;;2.90;;
66127;SDS011;52925;52.436;-1.952;2024-01-10T16:51:59;3.03;;;2.50;;
66127;SDS011;52925;52.436;-1.952;2024-01-10T16:53:20;3.58;;;2.38;;
66127;SDS011;52925;52.436;-1.952;2024-01-10T16:54:41;2.72;;;2.40;;
66127;SDS011;52925;52.436;-1.952;2024-01-10T16:56:03;3.53;;;2.65;;
66127;SDS011;52925;52.436;-1.952;2024-01-10T16:57:23;3.08;;;2.70;;
66127;SDS011;52925;52.436;-1.952;2024-01-10T16:58:43;3.35;;;2.70;;
66127;SDS011;52925;52.436;-1.952;2024-01-10T17:00:04;3.22;;;2.28;;
66127;SDS011;52925;52.436;-1.952;2024-01-10T17:01:27;2.90;;;2.38;;
66127;SDS011;52925;52.436;-1.952;2024-01-10T17:02:48;3.60;;;2.55;;
66127;SDS011;52925;52.436;-1.952;2024-01-10T17:04:09;3.10;;;2.80;;
66127;SDS011;52925;52.436;-1.952;2024-01-10T17:05:29;4.00;;;2.90;;
66127;SDS011;52925;52.436;-1.952;2024-01-10T17:06:50;3.47;;;2.90;;
66127;SDS011;52925;52.436;-1.952;2024-01-10T17:08:10;2.78;;;2.58;;
66127;SDS011;52925;52.436;-1.952;2024-01-10T17:09:31;4.75;;;3.20;;
66127;SDS011;52925;52.436;-1.952;2024-01-10T17:10:54;4.57;;;2.72;;
66127;SDS011;52925;52.436;-1.952;2024-01-10T17:12:15;2.97;;;2.67;;
66127;SDS011;52925;52.436;-1.952;2024-01-10T17:13:34;4.70;;;2.97;;
66127;SDS011;52925;52.436;-1.952;2024-01-10T17:14:55;6.63;;;3.30;;
66127;SDS011;52925;52.436;-1.952;2024-01-10T17:16:15;3.70;;;3.10;;
66127;SDS011;52925;52.436;-1.952;2024-01-10T17:17:36;3.33;;;3.03;;
66127;SDS011;52925;52.436;-1.952;2024-01-10T17:18:56;3.35;;;2.70;;
66127;SDS011;52925;52.436;-1.952;2024-01-10T17:20:17;3.95;;;3.05;;
66127;SDS011;52925;52.436;-1.952;2024-01-10T17:21:37;4.40;;;3.15;;
66127;SDS011;52925;52.436;-1.952;2024-01-10T17:22:58;3.13;;;2.80;;
66127;SDS011;52925;52.436;-1.952;2024-01-10T17:24:18;4.97;;;3.47;;
66127;SDS011;52925;52.436;-1.952;2024-01-10T17:25:39;5.03;;;3.20;;
66127;SDS011;52925;52.436;-1.952;2024-01-10T17:27:00;5.15;;;3.40;;
66127;SDS011;52925;52.436;-1.952;2024-01-10T17:28:21;3.45;;;3.10;;
66127;SDS011;52925;52.436;-1.952;2024-01-10T17:29:41;3.67;;;3.30;;
66127;SDS011;52925;52.436;-1.952;2024-01-10T17:31:02;3.90;;;3.25;;
66127;SDS011;52925;52.436;-1.952;2024-01-10T17:32:23;4.07;;;3.30;;
66127;SDS011;52925;52.436;-1.952;2024-01-10T17:33:44;5.32;;;3.28;;
66127;SDS011;52925;52.436;-1.952;2024-01-10T17:35:05;3.75;;;3.13;;
66127;SDS011;52925;52.436;-1.952;2024-01-10T17:36:26;5.63;;;3.40;;
66127;SDS011;52925;52.436;-1.952;2024-01-10T17:37:51;3.50;;;3.08;;
66127;SDS011;52925;52.436;-1.952;2024-01-10T17:39:13;3.75;;;3.13;;
66127;SDS011;52925;52.436;-1.952;2024-01-10T17:40:32;4.30;;;3.13;;
66127;SDS011;52925;52.436;-1.952;2024-01-10T17:41:53;3.78;;;3.05;;
66127;SDS011;52925;52.436;-1.952;2024-01-10T17:43:15;5.25;;;3.70;;
66127;SDS011;52925;52.436;-1.952;2024-01-10T17:44:35;3.75;;;3.20;;
66127;SDS011;52925;52.436;-1.952;2024-01-10T17:45:56;4.82;;;3.13;;
66127;SDS011;52925;52.436;-1.952;2024-01-10T17:47:17;3.63;;;3.22;;
66127;SDS011;52925;52.436;-1.952;2024-01-10T17:48:36;4.40;;;3.17;;
66127;SDS011;52925;52.436;-1.952;2024-01-10T17:49:57;5.55;;;3.30;;
66127;SDS011;52925;52.436;-1.952;2024-01-10T17:51:17;3.20;;;2.85;;
66127;SDS011;52925;52.436;-1.952;2024-01-10T17:52:40;4.65;;;3.50;;
66127;SDS011;52925;52.436;-1.952;2024-01-10T17:54:00;4.55;;;3.13;;
66127;SDS011;52925;52.436;-1.952;2024-01-10T17:55:21;5.07;;;3.75;;
66127;SDS011;52925;52.436;-1.952;2024-01-10T17:56:41;4.13;;;3.30;;
66127;SDS011;52925;52.436;-1.952;2024-01-10T17:58:02;3.35;;;3.03;;
66127;SDS011;52925;52.436;-1.952;2024-01-10T17:59:26;4.25;;;3.10;;
66127;SDS011;52925;52.436;-1.952;2024-01-10T18:00:47;3.65;;;3.25;;
66127;SDS011;52925;52.436;-1.952;2024-01-10T18:02:07;5.10;;;3.38;;
66127;SDS011;52925;52.436;-1.952;2024-01-10T18:03:28;4.93;;;3.17;;
66127;SDS011;52925;52.436;-1.952;2024-01-10T18:04:48;4.60;;;3.22;;
66127;SDS011;52925;52.436;-1.952;2024-01-10T18:06:09;4.72;;;3.40;;
66127;SDS011;52925;52.436;-1.952;2024-01-10T18:07:28;3.63;;;3.00;;
66127;SDS011;52925;52.436;-1.952;2024-01-10T18:08:49;4.05;;;3.15;;
66127;SDS011;52925;52.436;-1.952;2024-01-10T18:10:10;4.13;;;3.17;;
66127;SDS011;52925;52.436;-1.952;2024-01-10T18:11:31;4.30;;;3.20;;
66127;SDS011;52925;52.436;-1.952;2024-01-10T18:12:50;3.47;;;2.83;;
66127;SDS011;52925;52.436;-1.952;2024-01-10T18:14:11;2.95;;;2.75;;
66127;SDS011;52925;52.436;-1.952;2024-01-10T18:15:33;5.40;;;3.40;;
66127;SDS011;52925;52.436;-1.952;2024-01-10T18:16:54;3.90;;;2.60;;
66127;SDS011;52925;52.436;-1.952;2024-01-10T18:18:16;3.58;;;2.97;;
66127;SDS011;52925;52.436;-1.952;2024-01-10T18:19:36;3.80;;;3.33;;
66127;SDS011;52925;52.436;-1.952;2024-01-10T18:20:56;3.60;;;3.03;;
66127;SDS011;52925;52.436;-1.952;2024-01-10T18:22:17;3.90;;;2.70;;
66127;SDS011;52925;52.436;-1.952;2024-01-10T18:23:37;3.10;;;2.80;;
66127;SDS011;52925;52.436;-1.952;2024-01-10T18:24:58;3.10;;;2.58;;
66127;SDS011;52925;52.436;-1.952;2024-01-10T18:26:18;2.63;;;2.40;;
66127;SDS011;52925;52.436;-1.952;2024-01-10T18:27:39;3.33;;;2.75;;
66127;SDS011;52925;52.436;-1.952;2024-01-10T18:28:59;2.85;;;2.30;;
66127;SDS011;52925;52.436;-1.952;2024-01-10T18:30:20;3.28;;;2.50;;
66127;SDS011;52925;52.436;-1.952;2024-01-10T18:31:41;3.63;;;2.67;;
66127;SDS011;52925;52.436;-1.952;2024-01-10T18:33:02;3.13;;;2.30;;
66127;SDS011;52925;52.436;-1.952;2024-01-10T18:34:24;3.08;;;2.25;;
66127;SDS011;52925;52.436;-1.952;2024-01-10T18:35:45;3.35;;;2.60;;
66127;SDS011;52925;52.436;-1.952;2024-01-10T18:37:05;2.60;;;2.28;;
66127;SDS011;52925;52.436;-1.952;2024-01-10T18:38:27;3.03;;;2.33;;
66127;SDS011;52925;52.436;-1.952;2024-01-10T18:39:47;3.97;;;2.50;;
66127;SDS011;52925;52.436;-1.952;2024-01-10T18:41:09;2.95;;;2.20;;
66127;SDS011;52925;52.436;-1.952;2024-01-10T18:42:29;2.58;;;2.17;;
66127;SDS011;52925;52.436;-1.952;2024-01-10T18:43:50;2.20;;;2.00;;
66127;SDS011;52925;52.436;-1.952;2024-01-10T18:45:10;2.50;;;1.98;;
66127;SDS011;52925;52.436;-1.952;2024-01-10T18:46:31;2.55;;;2.17;;
66127;SDS011;52925;52.436;-1.952;2024-01-10T18:47:52;2.30;;;1.77;;
66127;SDS011;52925;52.436;-1.952;2024-01-10T18:49:14;2.25;;;2.05;;
66127;SDS011;52925;52.436;-1.952;2024-01-10T18:50:33;3.15;;;2.10;;
66127;SDS011;52925;52.436;-1.952;2024-01-10T18:51:55;2.03;;;1.70;;
66127;SDS011;52925;52.436;-1.952;2024-01-10T18:53:16;3.50;;;2.50;;
66127;SDS011;52925;52.436;-1.952;2024-01-10T18:54:36;2.28;;;1.70;;
66127;SDS011;52925;52.436;-1.952;2024-01-10T18:55:56;4.03;;;1.90;;
66127;SDS011;52925;52.436;-1.952;2024-01-10T18:57:17;2.60;;;1.90;;
66127;SDS011;52925;52.436;-1.952;2024-01-10T18:58:38;2.20;;;1.65;;
66127;SDS011;52925;52.436;-1.952;2024-01-10T18:59:59;2.35;;;1.50;;
66127;SDS011;52925;52.436;-1.952;2024-01-10T19:01:19;2.80;;;1.75;;
66127;SDS011;52925;52.436;-1.952;2024-01-10T19:02:39;3.15;;;1.75;;
66127;SDS011;52925;52.436;-1.952;2024-01-10T19:04:01;1.95;;;1.55;;
66127;SDS011;52925;52.436;-1.952;2024-01-10T19:05:22;2.30;;;1.45;;
66127;SDS011;52925;52.436;-1.952;2024-01-10T19:06:42;1.77;;;1.50;;
66127;SDS011;52925;52.436;-1.952;2024-01-10T19:08:04;1.58;;;1.35;;
66127;SDS011;52925;52.436;-1.952;2024-01-10T19:09:24;3.22;;;1.70;;
66127;SDS011;52925;52.436;-1.952;2024-01-10T19:10:45;1.90;;;1.42;;
66127;SDS011;52925;52.436;-1.952;2024-01-10T19:12:05;1.80;;;1.30;;
66127;SDS011;52925;52.436;-1.952;2024-01-10T19:13:26;1.98;;;1.48;;
66127;SDS011;52925;52.436;-1.952;2024-01-10T19:14:46;2.10;;;1.42;;
66127;SDS011;52925;52.436;-1.952;2024-01-10T19:16:08;2.28;;;1.40;;
66127;SDS011;52925;52.436;-1.952;2024-01-10T19:17:29;1.67;;;1.30;;
66127;SDS011;52925;52.436;-1.952;2024-01-10T19:18:49;1.27;;;1.15;;
66127;SDS011;52925;52.436;-1.952;2024-01-10T19:20:11;2.65;;;1.40;;
66127;SDS011;52925;52.436;-1.952;2024-01-10T19:21:32;1.85;;;1.25;;
66127;SDS011;52925;52.436;-1.952;2024-01-10T19:22:52;1.92;;;1.23;;
66127;SDS011;52925;52.436;-1.952;2024-01-10T19:24:13;1.50;;;1.20;;
66127;SDS011;52925;52.436;-1.952;2024-01-10T19:25:33;1.58;;;1.20;;
66127;SDS011;52925;52.436;-1.952;2024-01-10T19:26:54;1.73;;;1.20;;
66127;SDS011;52925;52.436;-1.952;2024-01-10T19:28:14;1.50;;;1.10;;
66127;SDS011;52925;52.436;-1.952;2024-01-10T19:29:35;1.38;;;0.95;;
66127;SDS011;52925;52.436;-1.952;2024-01-10T19:30:56;1.30;;;0.90;;
66127;SDS011;52925;52.436;-1.952;2024-01-10T19:32:17;1.92;;;1.30;;
66127;SDS011;52925;52.436;-1.952;2024-01-10T19:33:39;2.17;;;1.10;;
66127;SDS011;52925;52.436;-1.952;2024-01-10T19:34:59;2.15;;;1.10;;
66127;SDS011;52925;52.436;-1.952;2024-01-10T19:36:20;1.40;;;1.00;;
66127;SDS011;52925;52.436;-1.952;2024-01-10T19:37:41;1.20;;;1.00;;
66127;SDS011;52925;52.436;-1.952;2024-01-10T19:39:02;2.15;;;1.20;;
66127;SDS011;52925;52.436;-1.952;2024-01-10T19:40:24;2.10;;;1.20;;
66127;SDS011;52925;52.436;-1.952;2024-01-10T19:41:43;1.65;;;1.10;;
66127;SDS011;52925;52.436;-1.952;2024-01-10T19:43:06;1.50;;;0.90;;
66127;SDS011;52925;52.436;-1.952;2024-01-10T19:44:26;3.35;;;1.10;;
66127;SDS011;52925;52.436;-1.952;2024-01-10T19:45:46;1.90;;;1.05;;
66127;SDS011;52925;52.436;-1.952;2024-01-10T19:47:06;2.15;;;1.15;;
66127;SDS011;52925;52.436;-1.952;2024-01-10T19:48:27;1.65;;;0.80;;
66127;SDS011;52925;52.436;-1.952;2024-01-10T19:49:47;1.00;;;0.90;;
66127;SDS011;52925;52.436;-1.952;2024-01-10T19:51:08;1.25;;;0.90;;
66127;SDS011;52925;52.436;-1.952;2024-01-10T19:52:29;1.38;;;0.88;;
66127;SDS011;52925;52.436;-1.952;2024-01-10T19:53:50;1.85;;;1.10;;
66127;SDS011;52925;52.436;-1.952;2024-01-10T19:55:10;1.10;;;0.82;;
66127;SDS011;52925;52.436;-1.952;2024-01-10T19:56:31;1.15;;;0.95;;
66127;SDS011;52925;52.436;-1.952;2024-01-10T19:57:51;1.88;;;0.90;;
66127;SDS011;52925;52.436;-1.952;2024-01-10T19:59:12;1.58;;;0.93;;
66127;SDS011;52925;52.436;-1.952;2024-01-10T20:00:32;1.27;;;0.88;;
66127;SDS011;52925;52.436;-1.952;2024-01-10T20:01:52;1.70;;;1.00;;
66127;SDS011;52925;52.436;-1.952;2024-01-10T20:03:13;1.67;;;1.00;;
66127;SDS011;52925;52.436;-1.952;2024-01-10T20:04:34;1.90;;;1.00;;
66127;SDS011;52925;52.436;-1.952;2024-01-10T20:05:54;1.63;;;0.90;;
66127;SDS011;52925;52.436;-1.952;2024-01-10T20:07:15;1.05;;;0.80;;
66127;SDS011;52925;52.436;-1.952;2024-01-10T20:08:36;3.00;;;1.10;;
66127;SDS011;52925;52.436;-1.952;2024-01-10T20:09:57;4.45;;;1.10;;
66127;SDS011;52925;52.436;-1.952;2024-01-10T20:11:17;3.97;;;1.27;;
66127;SDS011;52925;52.436;-1.952;2024-01-10T20:12:38;3.10;;;1.00;;
66127;SDS011;52925;52.436;-1.952;2024-01-10T20:13:58;2.28;;;1.08;;
66127;SDS011;52925;52.436;-1.952;2024-01-10T20:15:19;1.50;;;0.90;;
66127;SDS011;52925;52.436;-1.952;2024-01-10T20:16:38;1.85;;;0.80;;
66127;SDS011;52925;52.436;-1.952;2024-01-10T20:17:59;1.85;;;1.00;;
66127;SDS011;52925;52.436;-1.952;2024-01-10T20:19:19;1.70;;;1.10;;
66127;SDS011;52925;52.436;-1.952;2024-01-10T20:20:40;2.22;;;0.90;;
66127;SDS011;52925;52.436;-1.952;2024-01-10T20:22:00;1.30;;;0.90;;
66127;SDS011;52925;52.436;-1.952;2024-01-10T20:23:20;1.42;;;0.82;;
66127;SDS011;52925;52.436;-1.952;2024-01-10T20:24:42;1.83;;;0.90;;
66127;SDS011;52925;52.436;-1.952;2024-01-10T20:26:02;1.55;;;0.75;;
66127;SDS011;52925;52.436;-1.952;2024-01-10T20:27:22;3.40;;;0.88;;
66127;SDS011;52925;52.436;-1.952;2024-01-10T20:28:43;1.98;;;1.02;;
66127;SDS011;52925;52.436;-1.952;2024-01-10T20:30:03;3.10;;;1.00;;
66127;SDS011;52925;52.436;-1.952;2024-01-10T20:31:25;1.50;;;0.90;;
66127;SDS011;52925;52.436;-1.952;2024-01-10T20:32:45;2.67;;;0.80;;
66127;SDS011;52925;52.436;-1.952;2024-01-10T20:34:06;1.45;;;1.00;;
66127;SDS011;52925;52.436;-1.952;2024-01-10T20:35:26;2.63;;;1.08;;
66127;SDS011;52925;52.436;-1.952;2024-01-10T20:36:46;1.20;;;0.77;;
66127;SDS011;52925;52.436;-1.952;2024-01-10T20:38:06;1.25;;;0.70;;
66127;SDS011;52925;52.436;-1.952;2024-01-10T20:39:27;2.42;;;0.90;;
66127;SDS011;52925;52.436;-1.952;2024-01-10T20:40:48;1.95;;;0.80;;
66127;SDS011;52925;52.436;-1.952;2024-01-10T20:42:09;1.25;;;0.82;;
66127;SDS011;52925;52.436;-1.952;2024-01-10T20:43:29;1.35;;;0.70;;
66127;SDS011;52925;52.436;-1.952;2024-01-10T20:44:50;1.10;;;0.70;;
66127;SDS011;52925;52.436;-1.952;2024-01-10T20:46:10;1.02;;;0.70;;
66127;SDS011;52925;52.436;-1.952;2024-01-10T20:47:31;1.38;;;0.80;;
66127;SDS011;52925;52.436;-1.952;2024-01-10T20:48:51;1.70;;;0.80;;
66127;SDS011;52925;52.436;-1.952;2024-01-10T20:50:13;2.10;;;0.77;;
66127;SDS011;52925;52.436;-1.952;2024-01-10T20:51:33;1.40;;;1.00;;
66127;SDS011;52925;52.436;-1.952;2024-01-10T20:52:54;3.03;;;0.85;;
66127;SDS011;52925;52.436;-1.952;2024-01-10T20:54:14;0.70;;;0.63;;
66127;SDS011;52925;52.436;-1.952;2024-01-10T20:55:34;1.17;;;0.70;;
66127;SDS011;52925;52.436;-1.952;2024-01-10T20:56:56;1.10;;;0.77;;
66127;SDS011;52925;52.436;-1.952;2024-01-10T20:58:16;1.23;;;0.75;;
66127;SDS011;52925;52.436;-1.952;2024-01-10T20:59:37;2.33;;;0.90;;
66127;SDS011;52925;52.436;-1.952;2024-01-10T21:00:58;1.80;;;0.77;;
66127;SDS011;52925;52.436;-1.952;2024-01-10T21:02:18;2.38;;;0.85;;
66127;SDS011;52925;52.436;-1.952;2024-01-10T21:03:38;2.45;;;0.88;;
66127;SDS011;52925;52.436;-1.952;2024-01-10T21:04:58;1.20;;;0.60;;
66127;SDS011;52925;52.436;-1.952;2024-01-10T21:06:19;1.13;;;0.80;;
66127;SDS011;52925;52.436;-1.952;2024-01-10T21:07:39;1.17;;;0.68;;
66127;SDS011;52925;52.436;-1.952;2024-01-10T21:09:00;1.08;;;0.60;;
66127;SDS011;52925;52.436;-1.952;2024-01-10T21:10:20;1.27;;;0.77;;
66127;SDS011;52925;52.436;-1.952;2024-01-10T21:11:40;1.10;;;0.73;;
66127;SDS011;52925;52.436;-1.952;2024-01-10T21:13:02;1.15;;;0.75;;
66127;SDS011;52925;52.436;-1.952;2024-01-10T21:14:23;1.08;;;0.70;;
66127;SDS011;52925;52.436;-1.952;2024-01-10T21:15:43;0.60;;;0.60;;
66127;SDS011;52925;52.436;-1.952;2024-01-10T21:17:04;0.90;;;0.70;;
66127;SDS011;52925;52.436;-1.952;2024-01-10T21:18:24;1.33;;;0.70;;
66127;SDS011;52925;52.436;-1.952;2024-01-10T21:19:45;2.00;;;0.77;;
66127;SDS011;52925;52.436;-1.952;2024-01-10T21:21:05;2.83;;;0.90;;
66127;SDS011;52925;52.436;-1.952;2024-01-10T21:22:26;1.25;;;0.73;;
66127;SDS011;52925;52.436;-1.952;2024-01-10T21:23:46;1.15;;;0.60;;
66127;SDS011;52925;52.436;-1.952;2024-01-10T21:25:07;0.68;;;0.60;;
66127;SDS011;52925;52.436;-1.952;2024-01-10T21:26:27;0.50;;;0.50;;
66127;SDS011;52925;52.436;-1.952;2024-01-10T21:27:48;1.00;;;0.80;;
66127;SDS011;52925;52.436;-1.952;2024-01-10T21:29:09;1.63;;;0.70;;
66127;SDS011;52925;52.436;-1.952;2024-01-10T21:30:29;0.80;;;0.60;;
66127;SDS011;52925;52.436;-1.952;2024-01-10T21:31:50;0.80;;;0.73;;
66127;SDS011;52925;52.436;-1.952;2024-01-10T21:33:12;0.98;;;0.88;;
66127;SDS011;52925;52.436;-1.952;2024-01-10T21:34:31;1.10;;;0.70;;
66127;SDS011;52925;52.436;-1.952;2024-01-10T21:35:52;1.55;;;0.80;;
66127;SDS011;52925;52.436;-1.952;2024-01-10T21:37:13;1.25;;;0.85;;
66127;SDS011;52925;52.436;-1.952;2024-01-10T21:38:33;0.82;;;0.77;;
66127;SDS011;52925;52.436;-1.952;2024-01-10T21:39:54;1.00;;;0.80;;
66127;SDS011;52925;52.436;-1.952;2024-01-10T21:41:14;1.15;;;0.70;;
66127;SDS011;52925;52.436;-1.952;2024-01-10T21:42:35;0.70;;;0.60;;
66127;SDS011;52925;52.436;-1.952;2024-01-10T21:43:55;1.27;;;0.80;;
66127;SDS011;52925;52.436;-1.952;2024-01-10T21:45:17;1.70;;;0.70;;
66127;SDS011;52925;52.436;-1.952;2024-01-10T21:46:41;1.40;;;0.70;;
66127;SDS011;52925;52.436;-1.952;2024-01-10T21:48:01;1.05;;;0.70;;
66127;SDS011;52925;52.436;-1.952;2024-01-10T21:49:22;1.70;;;0.90;;
66127;SDS011;52925;52.436;-1.952;2024-01-10T21:50:42;1.00;;;0.80;;
66127;SDS011;52925;52.436;-1.952;2024-01-10T21:52:03;1.02;;;0.60;;
66127;SDS011;52925;52.436;-1.952;2024-01-10T21:53:24;1.02;;;0.70;;
66127;SDS011;52925;52.436;-1.952;2024-01-10T21:54:44;1.00;;;0.70;;
66127;SDS011;52925;52.436;-1.952;2024-01-10T21:56:04;0.70;;;0.57;;
66127;SDS011;52925;52.436;-1.952;2024-01-10T21:57:25;1.52;;;0.60;;
66127;SDS011;52925;52.436;-1.952;2024-01-10T21:58:45;1.05;;;0.57;;
66127;SDS011;52925;52.436;-1.952;2024-01-10T22:00:07;1.20;;;0.60;;
66127;SDS011;52925;52.436;-1.952;2024-01-10T22:01:30;0.60;;;0.50;;
66127;SDS011;52925;52.436;-1.952;2024-01-10T22:02:51;0.90;;;0.70;;
66127;SDS011;52925;52.436;-1.952;2024-01-10T22:04:10;1.20;;;0.70;;
66127;SDS011;52925;52.436;-1.952;2024-01-10T22:05:31;0.82;;;0.70;;
66127;SDS011;52925;52.436;-1.952;2024-01-10T22:06:51;0.60;;;0.55;;
66127;SDS011;52925;52.436;-1.952;2024-01-10T22:08:12;0.70;;;0.50;;
66127;SDS011;52925;52.436;-1.952;2024-01-10T22:09:32;1.25;;;0.60;;
66127;SDS011;52925;52.436;-1.952;2024-01-10T22:10:53;0.75;;;0.57;;
66127;SDS011;52925;52.436;-1.952;2024-01-10T22:12:13;0.82;;;0.50;;
66127;SDS011;52925;52.436;-1.952;2024-01-10T22:13:34;1.48;;;0.82;;
66127;SDS011;52925;52.436;-1.952;2024-01-10T22:14:54;2.70;;;0.80;;
66127;SDS011;52925;52.436;-1.952;2024-01-10T22:16:15;0.80;;;0.73;;
66127;SDS011;52925;52.436;-1.952;2024-01-10T22:17:36;1.67;;;0.70;;
66127;SDS011;52925;52.436;-1.952;2024-01-10T22:18:57;2.22;;;0.70;;
66127;SDS011;52925;52.436;-1.952;2024-01-10T22:20:17;1.33;;;0.73;;
66127;SDS011;52925;52.436;-1.952;2024-01-10T22:21:37;1.00;;;0.70;;
66127;SDS011;52925;52.436;-1.952;2024-01-10T22:22:58;2.70;;;0.70;;
66127;SDS011;52925;52.436;-1.952;2024-01-10T22:24:18;2.58;;;0.90;;
66127;SDS011;52925;52.436;-1.952;2024-01-10T22:25:39;1.17;;;0.70;;
66127;SDS011;52925;52.436;-1.952;2024-01-10T22:27:01;1.00;;;0.70;;
66127;SDS011;52925;52.436;-1.952;2024-01-10T22:28:21;1.20;;;0.80;;
66127;SDS011;52925;52.436;-1.952;2024-01-10T22:29:42;1.33;;;0.80;;
66127;SDS011;52925;52.436;-1.952;2024-01-10T22:31:02;1.38;;;0.70;;